createdAt,value
2022-11-20T00:00:27.600Z,1006.87
2022-11-20T00:01:27.579Z,1006.86
2022-11-20T00:02:27.588Z,1006.88
2022-11-20T00:03:27.551Z,1006.86
2022-11-20T00:04:27.584Z,1006.85
2022-11-20T00:05:27.549Z,1006.83
2022-11-20T00:06:27.544Z,1006.82
2022-11-20T00:07:27.580Z,1006.81
2022-11-20T00:08:27.512Z,1006.79
2022-11-20T00:09:27.502Z,1006.78
2022-11-20T00:10:27.496Z,1006.78
2022-11-20T00:11:27.472Z,1006.80
2022-11-20T00:12:27.463Z,1006.79
2022-11-20T00:13:27.454Z,1006.79
2022-11-20T00:14:27.470Z,1006.78
2022-11-20T00:15:27.427Z,1006.79
2022-11-20T00:16:27.432Z,1006.79
2022-11-20T00:17:27.421Z,1006.78
2022-11-20T00:18:27.399Z,1006.79
2022-11-20T00:19:27.403Z,1006.78
2022-11-20T00:20:27.382Z,1006.79
2022-11-20T00:21:27.361Z,1006.79
2022-11-20T00:22:27.358Z,1006.79
2022-11-20T00:23:27.358Z,1006.79
2022-11-20T00:24:27.357Z,1006.79
2022-11-20T00:25:27.327Z,1006.79
2022-11-20T00:26:27.315Z,1006.79
2022-11-20T00:27:27.311Z,1006.81
2022-11-20T00:28:27.303Z,1006.81
2022-11-20T00:29:27.306Z,1006.80
2022-11-20T00:30:27.287Z,1006.80
2022-11-20T00:31:27.260Z,1006.80
2022-11-20T00:32:27.260Z,1006.80
2022-11-20T00:33:27.245Z,1006.81
2022-11-20T00:34:27.255Z,1006.82
2022-11-20T00:35:27.232Z,1006.81
2022-11-20T00:36:27.217Z,1006.81
2022-11-20T00:37:27.202Z,1006.81
2022-11-20T00:38:27.195Z,1006.84
2022-11-20T00:39:27.193Z,1006.85
2022-11-20T00:40:27.172Z,1006.85
2022-11-20T00:41:27.175Z,1006.86
2022-11-20T00:42:27.150Z,1006.86
2022-11-20T00:43:27.134Z,1006.84
2022-11-20T00:44:27.144Z,1006.84
2022-11-20T00:45:27.117Z,1006.85
2022-11-20T00:46:27.128Z,1006.84
2022-11-20T00:47:27.110Z,1006.85
2022-11-20T00:48:27.088Z,1006.85
2022-11-20T00:49:27.094Z,1006.84
2022-11-20T00:50:27.074Z,1006.83
2022-11-20T00:51:27.058Z,1006.82
2022-11-20T00:52:27.049Z,1006.83
2022-11-20T00:53:27.035Z,1006.80
2022-11-20T00:54:27.037Z,1006.82
2022-11-20T00:55:27.010Z,1006.79
2022-11-20T00:56:27.007Z,1006.78
2022-11-20T00:57:27.005Z,1006.80
2022-11-20T00:58:26.991Z,1006.78
2022-11-20T00:59:26.996Z,1006.80
2022-11-20T01:00:26.966Z,1006.81
2022-11-20T01:01:27.083Z,1006.81
2022-11-20T01:02:26.941Z,1006.83
2022-11-20T01:03:27.343Z,1006.84
2022-11-20T01:04:26.935Z,1006.83
2022-11-20T01:05:26.910Z,1006.82
2022-11-20T01:06:26.913Z,1006.82
2022-11-20T01:07:26.927Z,1006.83
2022-11-20T01:08:26.885Z,1006.83
2022-11-20T01:09:26.894Z,1006.82
2022-11-20T01:10:26.872Z,1006.82
2022-11-20T01:11:26.870Z,1006.83
2022-11-20T01:12:26.839Z,1006.82
2022-11-20T01:13:26.827Z,1006.81
2022-11-20T01:14:26.834Z,1006.80
2022-11-20T01:15:26.821Z,1006.77
2022-11-20T01:16:26.808Z,1006.77
2022-11-20T01:17:26.790Z,1006.78
2022-11-20T01:18:26.787Z,1006.79
2022-11-20T01:19:26.780Z,1006.79
2022-11-20T01:20:26.758Z,1006.79
2022-11-20T01:21:26.747Z,1006.79
2022-11-20T01:22:26.745Z,1006.78
2022-11-20T01:23:26.727Z,1006.77
2022-11-20T01:24:26.724Z,1006.75
2022-11-20T01:25:26.705Z,1006.73
2022-11-20T01:26:26.702Z,1006.73
2022-11-20T01:27:26.676Z,1006.73
2022-11-20T01:28:26.683Z,1006.72
2022-11-20T01:29:26.676Z,1006.69
2022-11-20T01:30:26.647Z,1006.69
2022-11-20T01:31:26.647Z,1006.68
2022-11-20T01:32:26.652Z,1006.66
2022-11-20T01:33:26.620Z,1006.65
2022-11-20T01:34:26.667Z,1006.65
2022-11-20T01:35:26.597Z,1006.65
2022-11-20T01:36:26.602Z,1006.64
2022-11-20T01:37:26.594Z,1006.67
2022-11-20T01:38:26.575Z,1006.68
2022-11-20T01:39:26.577Z,1006.70
2022-11-20T01:40:26.547Z,1006.70
2022-11-20T01:41:26.671Z,1006.71
2022-11-20T01:42:26.637Z,1006.68
2022-11-20T01:43:26.591Z,1006.67
2022-11-20T01:44:26.522Z,1006.67
2022-11-20T01:45:26.578Z,1006.67
2022-11-20T01:46:26.495Z,1006.67
2022-11-20T01:47:26.477Z,1006.69
2022-11-20T01:48:26.580Z,1006.70
2022-11-20T01:49:26.465Z,1006.70
2022-11-20T01:50:26.586Z,1006.68
2022-11-20T01:51:26.435Z,1006.68
2022-11-20T01:52:26.420Z,1006.68
2022-11-20T01:53:26.422Z,1006.67
2022-11-20T01:54:26.595Z,1006.66
2022-11-20T01:55:26.632Z,1006.65
2022-11-20T01:56:26.591Z,1006.66
2022-11-20T01:57:26.376Z,1006.64
2022-11-20T01:58:26.499Z,1006.64
2022-11-20T01:59:26.347Z,1006.63
2022-11-20T02:00:26.590Z,1006.62
2022-11-20T02:01:26.369Z,1006.61
2022-11-20T02:02:26.331Z,1006.62
2022-11-20T02:03:26.585Z,1006.61
2022-11-20T02:04:26.580Z,1006.62
2022-11-20T02:05:26.280Z,1006.60
2022-11-20T02:06:26.273Z,1006.63
2022-11-20T02:07:26.456Z,1006.62
2022-11-20T02:08:26.588Z,1006.62
2022-11-20T02:09:26.245Z,1006.60
2022-11-20T02:10:26.425Z,1006.58
2022-11-20T02:11:26.214Z,1006.56
2022-11-20T02:12:26.219Z,1006.54
2022-11-20T02:13:26.212Z,1006.57
2022-11-20T02:14:26.231Z,1006.51
2022-11-20T02:15:30.145Z,1006.51
2022-11-20T02:16:26.190Z,1006.48
2022-11-20T02:17:26.156Z,1006.47
2022-11-20T02:18:26.149Z,1006.46
2022-11-20T02:19:26.165Z,1006.46
2022-11-20T02:20:26.128Z,1006.46
2022-11-20T02:21:26.125Z,1006.48
2022-11-20T02:22:26.113Z,1006.49
2022-11-20T02:23:26.093Z,1006.50
2022-11-20T02:24:26.101Z,1006.48
2022-11-20T02:25:26.070Z,1006.49
2022-11-20T02:26:26.070Z,1006.48
2022-11-20T02:27:26.074Z,1006.47
2022-11-20T02:28:26.063Z,1006.47
2022-11-20T02:29:26.042Z,1006.46
2022-11-20T02:30:26.116Z,1006.46
2022-11-20T02:31:26.009Z,1006.45
2022-11-20T02:32:26.018Z,1006.44
2022-11-20T02:33:25.995Z,1006.44
2022-11-20T02:34:26.012Z,1006.44
2022-11-20T02:35:25.973Z,1006.44
2022-11-20T02:36:25.986Z,1006.44
2022-11-20T02:37:25.954Z,1006.44
2022-11-20T02:38:25.947Z,1006.44
2022-11-20T02:39:25.933Z,1006.44
2022-11-20T02:40:25.945Z,1006.44
2022-11-20T02:41:25.911Z,1006.44
2022-11-20T02:42:25.903Z,1006.43
2022-11-20T02:43:25.994Z,1006.43
2022-11-20T02:44:25.891Z,1006.41
2022-11-20T02:45:25.887Z,1006.40
2022-11-20T02:46:25.902Z,1006.41
2022-11-20T02:47:25.843Z,1006.42
2022-11-20T02:48:27.427Z,1006.43
2022-11-20T02:49:25.853Z,1006.42
2022-11-20T02:50:26.720Z,1006.42
2022-11-20T02:51:25.804Z,1006.41
2022-11-20T02:52:25.795Z,1006.41
2022-11-20T02:53:25.998Z,1006.40
2022-11-20T02:58:09.997Z,1006.39
2022-11-20T02:59:00.607Z,1006.38
2022-11-20T03:00:00.557Z,1006.40
2022-11-20T03:01:00.698Z,1006.38
2022-11-20T03:02:00.518Z,1006.38
2022-11-20T03:03:00.593Z,1006.38
2022-11-20T03:04:00.616Z,1006.37
2022-11-20T03:05:00.586Z,1006.36
2022-11-20T03:06:00.472Z,1006.35
2022-11-20T03:07:00.493Z,1006.35
2022-11-20T03:08:00.459Z,1006.34
2022-11-20T03:09:00.545Z,1006.34
2022-11-20T03:10:00.587Z,1006.34
2022-11-20T03:11:06.538Z,1006.33
2022-11-20T03:12:00.604Z,1006.32
2022-11-20T03:13:00.400Z,1006.31
2022-11-20T03:14:00.614Z,1006.30
2022-11-20T03:15:00.384Z,1006.29
2022-11-20T03:16:00.635Z,1006.29
2022-11-20T03:17:00.370Z,1006.30
2022-11-20T03:18:00.384Z,1006.29
2022-11-20T03:19:00.351Z,1006.29
2022-11-20T03:20:00.373Z,1006.28
2022-11-20T03:21:00.605Z,1006.25
2022-11-20T03:22:00.311Z,1006.25
2022-11-20T03:23:00.610Z,1006.25
2022-11-20T03:24:00.312Z,1006.22
2022-11-20T03:25:00.634Z,1006.21
2022-11-20T03:26:00.290Z,1006.22
2022-11-20T03:27:00.277Z,1006.19
2022-11-20T03:28:00.266Z,1006.17
2022-11-20T03:29:00.251Z,1006.17
2022-11-20T03:30:00.592Z,1006.16
2022-11-20T03:31:00.622Z,1006.18
2022-11-20T03:32:00.338Z,1006.18
2022-11-20T03:33:00.612Z,1006.17
2022-11-20T03:34:00.198Z,1006.19
2022-11-20T03:35:00.192Z,1006.18
2022-11-20T03:36:00.179Z,1006.20
2022-11-20T03:37:00.168Z,1006.18
2022-11-20T03:38:00.158Z,1006.18
2022-11-20T03:39:00.138Z,1006.19
2022-11-20T03:40:00.167Z,1006.18
2022-11-20T03:41:00.118Z,1006.17
2022-11-20T03:42:00.174Z,1006.18
2022-11-20T03:43:00.156Z,1006.17
2022-11-20T03:44:00.099Z,1006.16
2022-11-20T03:45:00.098Z,1006.17
2022-11-20T03:46:00.080Z,1006.17
2022-11-20T03:47:00.072Z,1006.17
2022-11-20T03:48:00.089Z,1006.17
2022-11-20T03:49:00.075Z,1006.17
2022-11-20T03:50:00.132Z,1006.15
2022-11-20T03:51:00.045Z,1006.13
2022-11-20T03:52:00.026Z,1006.12
2022-11-20T03:53:00.036Z,1006.11
2022-11-20T03:54:00.029Z,1006.10
2022-11-20T03:54:59.995Z,1006.10
2022-11-20T03:56:00.066Z,1006.11
2022-11-20T03:56:59.965Z,1006.15
2022-11-20T03:57:59.978Z,1006.17
2022-11-20T03:58:59.938Z,1006.19
2022-11-20T04:00:00.156Z,1006.17
2022-11-20T04:01:00.002Z,1006.16
2022-11-20T04:01:59.961Z,1006.16
2022-11-20T04:02:59.904Z,1006.14
2022-11-20T04:03:59.895Z,1006.12
2022-11-20T04:05:00.110Z,1006.13
2022-11-20T04:05:59.905Z,1006.14
2022-11-20T04:06:59.916Z,1006.12
2022-11-20T04:07:59.914Z,1006.10
2022-11-20T04:09:00.018Z,1006.10
2022-11-20T04:09:59.846Z,1006.09
2022-11-20T04:10:59.810Z,1006.07
2022-11-20T04:11:59.815Z,1006.06
2022-11-20T04:12:59.989Z,1006.06
2022-11-20T04:13:59.791Z,1006.07
2022-11-20T04:14:59.918Z,1006.06
2022-11-20T04:15:59.838Z,1006.07
2022-11-20T04:16:59.755Z,1006.05
2022-11-20T04:17:59.949Z,1006.08
2022-11-20T04:18:59.857Z,1006.10
2022-11-20T04:19:59.733Z,1006.10
2022-11-20T04:20:59.714Z,1006.12
2022-11-20T04:22:00.619Z,1006.12
2022-11-20T04:22:59.719Z,1006.09
2022-11-20T04:23:59.683Z,1006.10
2022-11-20T04:24:59.788Z,1006.11
2022-11-20T04:25:59.824Z,1006.13
2022-11-20T04:26:59.655Z,1006.14
2022-11-20T04:27:59.901Z,1006.13
2022-11-20T04:29:00.597Z,1006.12
2022-11-20T04:29:59.855Z,1006.14
2022-11-20T04:30:59.622Z,1006.12
2022-11-20T04:31:59.634Z,1006.14
2022-11-20T04:32:59.620Z,1006.13
2022-11-20T04:33:59.586Z,1006.14
2022-11-20T04:34:59.592Z,1006.14
2022-11-20T04:35:59.564Z,1006.14
2022-11-20T04:36:59.551Z,1006.13
2022-11-20T04:37:59.539Z,1006.12
2022-11-20T04:38:59.539Z,1006.10
2022-11-20T04:39:59.543Z,1006.12
2022-11-20T04:40:59.555Z,1006.08
2022-11-20T04:41:59.508Z,1006.07
2022-11-20T04:42:59.495Z,1006.04
2022-11-20T04:43:59.483Z,1006.02
2022-11-20T04:44:59.489Z,1006.00
2022-11-20T04:45:59.471Z,1005.99
2022-11-20T04:46:59.450Z,1005.97
2022-11-20T04:47:59.451Z,1005.95
2022-11-20T04:48:59.426Z,1005.95
2022-11-20T04:49:59.467Z,1005.98
2022-11-20T04:50:59.406Z,1005.99
2022-11-20T04:51:59.396Z,1005.98
2022-11-20T04:52:59.391Z,1005.97
2022-11-20T04:53:59.376Z,1005.97
2022-11-20T04:54:59.383Z,1005.99
2022-11-20T04:55:59.360Z,1005.92
2022-11-20T04:56:59.353Z,1005.93
2022-11-20T04:57:59.343Z,1005.95
2022-11-20T04:58:59.338Z,1005.96
2022-11-20T04:59:59.333Z,1005.94
2022-11-20T05:00:59.329Z,1005.93
2022-11-20T05:01:59.428Z,1005.92
2022-11-20T05:02:59.288Z,1005.90
2022-11-20T05:03:59.278Z,1005.90
2022-11-20T05:04:59.316Z,1005.89
2022-11-20T05:05:59.279Z,1005.87
2022-11-20T05:06:59.309Z,1005.86
2022-11-20T05:07:59.260Z,1005.85
2022-11-20T05:08:59.239Z,1005.81
2022-11-20T05:09:59.221Z,1005.81
2022-11-20T05:10:59.207Z,1005.79
2022-11-20T05:11:59.197Z,1005.79
2022-11-20T05:12:59.193Z,1005.79
2022-11-20T05:13:59.176Z,1005.78
2022-11-20T05:14:59.202Z,1005.76
2022-11-20T05:15:59.186Z,1005.76
2022-11-20T05:16:59.152Z,1005.75
2022-11-20T05:17:59.128Z,1005.75
2022-11-20T05:18:59.123Z,1005.73
2022-11-20T05:19:59.120Z,1005.72
2022-11-20T05:20:59.118Z,1005.71
2022-11-20T05:21:59.111Z,1005.72
2022-11-20T05:22:59.083Z,1005.70
2022-11-20T05:23:59.077Z,1005.69
2022-11-20T05:24:59.064Z,1005.71
2022-11-20T05:25:59.599Z,1005.69
2022-11-20T05:26:59.044Z,1005.68
2022-11-20T05:27:59.097Z,1005.67
2022-11-20T05:28:59.063Z,1005.68
2022-11-20T05:29:59.003Z,1005.68
2022-11-20T05:30:59.027Z,1005.67
2022-11-20T05:31:58.999Z,1005.69
2022-11-20T05:32:58.991Z,1005.70
2022-11-20T05:33:58.974Z,1005.70
2022-11-20T05:34:58.961Z,1005.72
2022-11-20T05:35:58.966Z,1005.70
2022-11-20T05:36:58.934Z,1005.70
2022-11-20T05:37:58.927Z,1005.70
2022-11-20T05:39:01.732Z,1005.70
2022-11-20T05:39:58.911Z,1005.69
2022-11-20T05:40:58.940Z,1005.68
2022-11-20T05:41:58.892Z,1005.67
2022-11-20T05:42:58.885Z,1005.68
2022-11-20T05:43:58.867Z,1005.68
2022-11-20T05:44:58.865Z,1005.68
2022-11-20T05:45:58.859Z,1005.67
2022-11-20T05:46:58.831Z,1005.66
2022-11-20T05:47:58.825Z,1005.63
2022-11-20T05:48:58.852Z,1005.62
2022-11-20T05:49:58.800Z,1005.62
2022-11-20T05:50:58.839Z,1005.61
2022-11-20T05:51:58.873Z,1005.62
2022-11-20T05:52:58.807Z,1005.60
2022-11-20T05:53:58.784Z,1005.60
2022-11-20T05:54:58.766Z,1005.60
2022-11-20T05:55:58.753Z,1005.64
2022-11-20T05:56:58.758Z,1005.64
2022-11-20T05:57:58.861Z,1005.63
2022-11-20T05:58:58.816Z,1005.64
2022-11-20T05:59:58.746Z,1005.63
2022-11-20T06:00:58.707Z,1005.65
2022-11-20T06:01:58.665Z,1005.66
2022-11-20T06:02:58.708Z,1005.64
2022-11-20T06:03:58.733Z,1005.63
2022-11-20T06:04:58.612Z,1005.62
2022-11-20T06:05:58.726Z,1005.62
2022-11-20T06:06:58.706Z,1005.61
2022-11-20T06:07:58.643Z,1005.59
2022-11-20T06:08:58.794Z,1005.59
2022-11-20T06:09:58.611Z,1005.58
2022-11-20T06:10:58.780Z,1005.57
2022-11-20T06:11:58.521Z,1005.56
2022-11-20T06:12:58.628Z,1005.56
2022-11-20T06:13:58.536Z,1005.55
2022-11-20T06:14:58.496Z,1005.56
2022-11-20T06:15:58.502Z,1005.57
2022-11-20T06:16:58.522Z,1005.55
2022-11-20T06:17:58.522Z,1005.56
2022-11-20T06:18:58.530Z,1005.56
2022-11-20T06:19:58.469Z,1005.55
2022-11-20T06:20:58.483Z,1005.53
2022-11-20T06:21:58.431Z,1005.52
2022-11-20T06:22:58.444Z,1005.53
2022-11-20T06:23:58.424Z,1005.52
2022-11-20T06:24:58.565Z,1005.53
2022-11-20T06:25:58.470Z,1005.52
2022-11-20T06:26:58.385Z,1005.52
2022-11-20T06:27:58.493Z,1005.52
2022-11-20T06:28:58.379Z,1005.54
2022-11-20T06:29:58.349Z,1005.52
2022-11-20T06:30:58.349Z,1005.54
2022-11-20T06:31:58.414Z,1005.54
2022-11-20T06:32:58.331Z,1005.55
2022-11-20T06:33:58.323Z,1005.56
2022-11-20T06:34:58.365Z,1005.56
2022-11-20T06:36:00.468Z,1005.57
2022-11-20T06:36:58.271Z,1005.59
2022-11-20T06:37:58.276Z,1005.60
2022-11-20T06:38:58.269Z,1005.60
2022-11-20T06:39:58.358Z,1005.60
2022-11-20T06:40:58.242Z,1005.59
2022-11-20T06:41:59.266Z,1005.59
2022-11-20T06:42:58.264Z,1005.61
2022-11-20T06:43:58.191Z,1005.60
2022-11-20T06:44:58.232Z,1005.61
2022-11-20T06:45:58.305Z,1005.62
2022-11-20T06:46:58.175Z,1005.61
2022-11-20T06:47:58.194Z,1005.61
2022-11-20T06:48:58.179Z,1005.61
2022-11-20T06:49:58.150Z,1005.55
2022-11-20T06:50:58.209Z,1005.53
2022-11-20T06:51:58.172Z,1005.52
2022-11-20T06:52:58.169Z,1005.51
2022-11-20T06:53:58.241Z,1005.52
2022-11-20T06:54:58.085Z,1005.51
2022-11-20T06:55:58.139Z,1005.51
2022-11-20T06:56:58.098Z,1005.52
2022-11-20T06:57:58.084Z,1005.50
2022-11-20T06:58:58.053Z,1005.51
2022-11-20T06:59:58.052Z,1005.50
2022-11-20T07:00:58.110Z,1005.50
2022-11-20T07:01:58.009Z,1005.50
2022-11-20T07:02:58.013Z,1005.50
2022-11-20T07:03:58.010Z,1005.50
2022-11-20T07:04:58.001Z,1005.49
2022-11-20T07:05:58.025Z,1005.49
2022-11-20T07:06:58.016Z,1005.49
2022-11-20T07:07:58.010Z,1005.49
2022-11-20T07:08:58.009Z,1005.49
2022-11-20T07:09:57.969Z,1005.49
2022-11-20T07:10:57.945Z,1005.45
2022-11-20T07:11:57.991Z,1005.47
2022-11-20T07:12:57.922Z,1005.46
2022-11-20T07:13:57.945Z,1005.46
2022-11-20T07:14:57.952Z,1005.46
2022-11-20T07:15:57.904Z,1005.46
2022-11-20T07:16:57.860Z,1005.45
2022-11-20T07:17:57.890Z,1005.44
2022-11-20T07:18:57.909Z,1005.45
2022-11-20T07:19:57.881Z,1005.45
2022-11-20T07:20:57.832Z,1005.45
2022-11-20T07:21:57.811Z,1005.47
2022-11-20T07:22:57.931Z,1005.47
2022-11-20T07:23:57.933Z,1005.47
2022-11-20T07:24:57.800Z,1005.48
2022-11-20T07:25:57.802Z,1005.47
2022-11-20T07:26:57.777Z,1005.47
2022-11-20T07:27:57.750Z,1005.47
2022-11-20T07:28:57.791Z,1005.47
2022-11-20T07:29:57.779Z,1005.47
2022-11-20T07:30:57.731Z,1005.46
2022-11-20T07:31:57.755Z,1005.47
2022-11-20T07:32:57.765Z,1005.48
2022-11-20T07:33:57.678Z,1005.50
2022-11-20T07:34:57.675Z,1005.50
2022-11-20T07:35:57.684Z,1005.52
2022-11-20T07:36:57.689Z,1005.50
2022-11-20T07:37:57.693Z,1005.49
2022-11-20T07:38:57.682Z,1005.50
2022-11-20T07:39:57.623Z,1005.54
2022-11-20T07:40:57.676Z,1005.51
2022-11-20T07:41:57.633Z,1005.48
2022-11-20T07:42:57.594Z,1005.49
2022-11-20T07:43:57.585Z,1005.47
2022-11-20T07:44:57.589Z,1005.46
2022-11-20T07:45:57.591Z,1005.44
2022-11-20T07:46:57.553Z,1005.42
2022-11-20T07:47:57.559Z,1005.40
2022-11-20T07:48:57.535Z,1005.43
2022-11-20T07:49:57.527Z,1005.43
2022-11-20T07:50:57.547Z,1005.42
2022-11-20T07:52:03.122Z,1005.42
2022-11-20T07:52:57.513Z,1005.42
2022-11-20T07:53:57.485Z,1005.41
2022-11-20T07:54:57.475Z,1005.42
2022-11-20T07:55:57.495Z,1005.38
2022-11-20T07:56:57.453Z,1005.37
2022-11-20T07:57:57.513Z,1005.37
2022-11-20T07:58:57.433Z,1005.37
2022-11-20T07:59:57.421Z,1005.39
2022-11-20T08:00:57.450Z,1005.41
2022-11-20T08:01:57.402Z,1005.38
2022-11-20T08:02:57.400Z,1005.38
2022-11-20T08:03:57.395Z,1005.40
2022-11-20T08:04:57.367Z,1005.39
2022-11-20T08:05:57.382Z,1005.39
2022-11-20T08:06:57.653Z,1005.41
2022-11-20T08:07:57.348Z,1005.40
2022-11-20T08:08:57.335Z,1005.37
2022-11-20T08:09:57.317Z,1005.35
2022-11-20T08:10:57.336Z,1005.37
2022-11-20T08:11:57.298Z,1005.33
2022-11-20T08:12:57.285Z,1005.33
2022-11-20T08:13:57.280Z,1005.31
2022-11-20T08:14:57.269Z,1005.33
2022-11-20T08:15:57.266Z,1005.30
2022-11-20T08:16:57.248Z,1005.31
2022-11-20T08:18:28.830Z,1005.31
2022-11-20T08:18:57.232Z,1005.31
2022-11-20T08:19:57.211Z,1005.32
2022-11-20T08:20:57.250Z,1005.31
2022-11-20T08:21:57.205Z,1005.31
2022-11-20T08:22:57.197Z,1005.31
2022-11-20T08:23:57.177Z,1005.34
2022-11-20T08:24:57.188Z,1005.29
2022-11-20T08:25:57.166Z,1005.30
2022-11-20T08:26:57.171Z,1005.30
2022-11-20T08:28:00.159Z,1005.29
2022-11-20T08:28:57.140Z,1005.28
2022-11-20T08:29:57.118Z,1005.27
2022-11-20T08:30:57.113Z,1005.25
2022-11-20T08:31:57.115Z,1005.23
2022-11-20T08:32:57.103Z,1005.20
2022-11-20T08:33:57.095Z,1005.19
2022-11-20T08:34:57.225Z,1005.20
2022-11-20T08:35:57.065Z,1005.20
2022-11-20T08:36:57.045Z,1005.18
2022-11-20T08:37:57.149Z,1005.19
2022-11-20T08:38:57.018Z,1005.19
2022-11-20T08:39:57.017Z,1005.18
2022-11-20T08:40:57.026Z,1005.22
2022-11-20T08:41:57.077Z,1005.22
2022-11-20T08:42:56.996Z,1005.22
2022-11-20T08:43:57.057Z,1005.21
2022-11-20T08:44:56.981Z,1005.21
2022-11-20T08:45:57.117Z,1005.18
2022-11-20T08:46:56.934Z,1005.20
2022-11-20T08:47:57.173Z,1005.19
2022-11-20T08:48:56.928Z,1005.18
2022-11-20T08:49:56.916Z,1005.18
2022-11-20T08:50:56.930Z,1005.18
2022-11-20T08:51:56.897Z,1005.18
2022-11-20T08:52:56.880Z,1005.17
2022-11-20T08:53:56.889Z,1005.16
2022-11-20T08:54:56.887Z,1005.17
2022-11-20T08:55:56.916Z,1005.12
2022-11-20T08:56:56.847Z,1005.11
2022-11-20T08:57:56.857Z,1005.11
2022-11-20T09:00:06.011Z,1005.11
2022-11-20T09:00:56.872Z,1005.12
2022-11-20T09:01:56.810Z,1005.10
2022-11-20T09:02:57.578Z,1005.08
2022-11-20T09:06:35.794Z,1005.11
2022-11-20T09:07:20.324Z,1005.09
2022-11-20T09:08:20.189Z,1005.09
2022-11-20T09:09:20.655Z,1005.09
2022-11-20T09:10:24.681Z,1005.11
2022-11-20T09:11:26.173Z,1005.11
2022-11-20T09:12:20.226Z,1005.12
2022-11-20T09:13:20.145Z,1005.17
2022-11-20T09:14:20.110Z,1005.18
2022-11-20T09:15:20.176Z,1005.24
2022-11-20T09:16:20.218Z,1005.22
2022-11-20T09:17:20.070Z,1005.19
2022-11-20T09:18:20.068Z,1005.18
2022-11-20T09:19:34.988Z,1005.25
2022-11-20T09:20:20.077Z,1005.26
2022-11-20T09:21:20.145Z,1005.22
2022-11-20T09:22:20.038Z,1005.21
2022-11-20T09:23:20.028Z,1005.23
2022-11-20T09:24:20.148Z,1005.26
2022-11-20T09:25:19.998Z,1005.29
2022-11-20T09:26:20.002Z,1005.28
2022-11-20T09:27:19.973Z,1005.27
2022-11-20T09:28:19.970Z,1005.28
2022-11-20T09:29:20.332Z,1005.30
2022-11-20T09:30:19.995Z,1005.31
2022-11-20T09:31:19.935Z,1005.30
2022-11-20T09:32:19.949Z,1005.29
2022-11-20T09:33:19.905Z,1005.28
2022-11-20T09:34:19.926Z,1005.26
2022-11-20T09:35:19.883Z,1005.28
2022-11-20T09:36:19.928Z,1005.27
2022-11-20T09:37:19.870Z,1005.23
2022-11-20T09:38:19.879Z,1005.20
2022-11-20T09:39:20.238Z,1005.23
2022-11-20T09:40:20.033Z,1005.24
2022-11-20T09:41:19.924Z,1005.23
2022-11-20T09:42:19.835Z,1005.22
2022-11-20T09:43:19.794Z,1005.20
2022-11-20T09:44:19.824Z,1005.22
2022-11-20T09:45:19.785Z,1005.20
2022-11-20T09:46:19.805Z,1005.14
2022-11-20T09:47:19.762Z,1005.14
2022-11-20T09:48:19.769Z,1005.14
2022-11-20T09:49:20.136Z,1005.13
2022-11-20T09:50:19.939Z,1005.12
2022-11-20T09:51:19.743Z,1005.11
2022-11-20T09:52:19.724Z,1005.11
2022-11-20T09:53:19.693Z,1005.17
2022-11-20T09:54:19.750Z,1005.12
2022-11-20T09:55:19.680Z,1005.12
2022-11-20T09:56:22.512Z,1005.08
2022-11-20T09:57:19.707Z,1005.10
2022-11-20T09:58:19.774Z,1005.10
2022-11-20T09:59:19.994Z,1005.09
2022-11-20T10:00:19.679Z,1005.09
2022-11-20T10:01:19.748Z,1005.05
2022-11-20T10:02:19.622Z,1005.09
2022-11-20T10:03:19.584Z,1005.04
2022-11-20T10:04:19.715Z,1005.06
2022-11-20T10:05:19.571Z,1005.10
2022-11-20T10:06:19.589Z,1005.06
2022-11-20T10:07:34.948Z,1005.04
2022-11-20T10:08:19.631Z,1005.05
2022-11-20T10:09:19.849Z,1005.01
2022-11-20T10:10:19.516Z,1004.99
2022-11-20T10:11:19.527Z,1005.00
2022-11-20T10:12:19.500Z,1004.99
2022-11-20T10:13:19.507Z,1004.98
2022-11-20T10:14:19.493Z,1004.99
2022-11-20T10:15:19.478Z,1005.01
2022-11-20T10:16:19.464Z,1005.00
2022-11-20T10:17:19.447Z,1004.97
2022-11-20T10:18:19.437Z,1004.98
2022-11-20T10:19:19.691Z,1004.97
2022-11-20T10:20:19.415Z,1004.95
2022-11-20T10:21:19.411Z,1004.94
2022-11-20T10:22:19.412Z,1004.94
2022-11-20T10:23:25.364Z,1004.96
2022-11-20T10:24:19.395Z,1004.93
2022-11-20T10:25:19.359Z,1004.92
2022-11-20T10:26:19.360Z,1004.93
2022-11-20T10:27:19.354Z,1004.89
2022-11-20T10:28:19.329Z,1004.87
2022-11-20T10:29:19.311Z,1004.88
2022-11-20T10:30:19.312Z,1004.87
2022-11-20T10:31:19.324Z,1004.87
2022-11-20T10:32:19.294Z,1004.86
2022-11-20T10:33:19.278Z,1004.87
2022-11-20T10:34:22.786Z,1004.88
2022-11-20T10:35:19.251Z,1004.85
2022-11-20T10:36:19.287Z,1004.84
2022-11-20T10:37:19.255Z,1004.81
2022-11-20T10:38:19.232Z,1004.78
2022-11-20T10:39:19.589Z,1004.81
2022-11-20T10:40:19.202Z,1004.81
2022-11-20T10:41:19.194Z,1004.79
2022-11-20T10:42:19.218Z,1004.77
2022-11-20T10:43:19.188Z,1004.77
2022-11-20T10:44:19.425Z,1004.76
2022-11-20T10:45:19.145Z,1004.74
2022-11-20T10:46:19.139Z,1004.71
2022-11-20T10:47:19.155Z,1004.72
2022-11-20T10:48:19.127Z,1004.69
2022-11-20T10:49:19.389Z,1004.72
2022-11-20T10:50:22.163Z,1004.70
2022-11-20T10:51:19.114Z,1004.71
2022-11-20T10:52:19.098Z,1004.69
2022-11-20T10:53:19.057Z,1004.72
2022-11-20T10:54:19.058Z,1004.69
2022-11-20T10:55:19.043Z,1004.66
2022-11-20T10:56:19.042Z,1004.65
2022-11-20T10:57:19.046Z,1004.65
2022-11-20T10:58:19.018Z,1004.64
2022-11-20T10:59:19.156Z,1004.64
2022-11-20T11:00:19.022Z,1004.63
2022-11-20T11:01:19.203Z,1004.65
2022-11-20T11:02:18.982Z,1004.61
2022-11-20T11:03:18.955Z,1004.63
2022-11-20T11:04:18.952Z,1004.62
2022-11-20T11:05:18.947Z,1004.65
2022-11-20T11:06:18.949Z,1004.64
2022-11-20T11:07:18.992Z,1004.63
2022-11-20T11:08:18.931Z,1004.66
2022-11-20T11:09:18.965Z,1004.66
2022-11-20T11:10:18.884Z,1004.62
2022-11-20T11:11:18.939Z,1004.66
2022-11-20T11:12:18.916Z,1004.70
2022-11-20T11:13:18.851Z,1004.70
2022-11-20T11:14:18.845Z,1004.68
2022-11-20T11:15:18.829Z,1004.68
2022-11-20T11:16:18.817Z,1004.68
2022-11-20T11:17:18.823Z,1004.68
2022-11-20T11:18:18.814Z,1004.67
2022-11-20T11:19:19.108Z,1004.63
2022-11-20T11:20:18.779Z,1004.65
2022-11-20T11:21:18.817Z,1004.65
2022-11-20T11:22:18.781Z,1004.65
2022-11-20T11:23:18.743Z,1004.65
2022-11-20T11:24:40.893Z,1004.61
2022-11-20T11:25:18.748Z,1004.61
2022-11-20T11:26:18.708Z,1004.59
2022-11-20T11:27:19.203Z,1004.58
2022-11-20T11:28:18.695Z,1004.58
2022-11-20T11:29:18.705Z,1004.57
2022-11-20T11:30:18.666Z,1004.55
2022-11-20T11:31:18.747Z,1004.54
2022-11-20T11:32:18.657Z,1004.53
2022-11-20T11:33:18.656Z,1004.52
2022-11-20T11:34:18.634Z,1004.56
2022-11-20T11:35:18.634Z,1004.54
2022-11-20T11:36:18.606Z,1004.53
2022-11-20T11:37:18.629Z,1004.54
2022-11-20T11:38:18.593Z,1004.50
2022-11-20T11:39:18.578Z,1004.49
2022-11-20T11:40:25.748Z,1004.47
2022-11-20T11:41:18.641Z,1004.47
2022-11-20T11:42:18.562Z,1004.45
2022-11-20T11:43:18.549Z,1004.43
2022-11-20T11:44:18.526Z,1004.44
2022-11-20T11:45:18.559Z,1004.44
2022-11-20T11:46:18.505Z,1004.43
2022-11-20T11:47:18.521Z,1004.40
2022-11-20T11:48:18.493Z,1004.42
2022-11-20T11:49:18.505Z,1004.42
2022-11-20T11:50:18.483Z,1004.42
2022-11-20T11:51:18.570Z,1004.43
2022-11-20T11:52:18.458Z,1004.43
2022-11-20T11:53:18.434Z,1004.39
2022-11-20T11:54:18.423Z,1004.40
2022-11-20T11:55:18.429Z,1004.39
2022-11-20T11:56:18.406Z,1004.40
2022-11-20T11:57:18.404Z,1004.38
2022-11-20T11:58:18.376Z,1004.40
2022-11-20T11:59:18.374Z,1004.39
2022-11-20T12:00:18.359Z,1004.36
2022-11-20T12:01:18.386Z,1004.39
2022-11-20T12:02:18.414Z,1004.36
2022-11-20T12:03:18.340Z,1004.35
2022-11-20T12:04:18.347Z,1004.38
2022-11-20T12:05:18.397Z,1004.37
2022-11-20T12:06:18.306Z,1004.34
2022-11-20T12:07:44.837Z,1004.34
2022-11-20T12:08:18.395Z,1004.34
2022-11-20T12:09:18.268Z,1004.35
2022-11-20T12:10:18.267Z,1004.37
2022-11-20T12:11:18.308Z,1004.37
2022-11-20T12:12:18.292Z,1004.33